createdAt,value
2018-11-05T00:01:40.732Z,39.90
2018-11-05T00:04:09.493Z,38.53
2018-11-05T00:06:38.085Z,37.13
2018-11-05T00:09:08.616Z,40.63
2018-11-05T00:11:37.132Z,41.37
2018-11-05T00:14:05.859Z,38.73
2018-11-05T00:16:34.487Z,45.13
2018-11-05T00:19:03.239Z,41.07
2018-11-05T00:21:31.889Z,46.60
2018-11-05T00:24:01.392Z,42.00
2018-11-05T00:26:35.594Z,46.20
2018-11-05T00:29:04.066Z,42.23
2018-11-05T00:31:32.754Z,48.37
2018-11-05T00:34:01.658Z,42.63
2018-11-05T00:36:35.680Z,40.10
2018-11-05T00:39:09.278Z,39.60
2018-11-05T00:41:38.066Z,42.30
2018-11-05T00:44:08.885Z,38.63
2018-11-05T00:46:38.114Z,39.57
2018-11-05T00:49:07.011Z,45.20
2018-11-05T00:51:42.007Z,43.37
2018-11-05T00:54:12.646Z,48.60
2018-11-05T00:56:53.637Z,41.90
2018-11-05T00:59:30.038Z,39.97
2018-11-05T01:02:13.575Z,46.60
2018-11-05T01:04:48.202Z,41.83
2018-11-05T01:07:29.322Z,39.53
2018-11-05T01:12:51.677Z,40.80
2018-11-05T01:15:20.383Z,43.83
2018-11-05T01:17:49.082Z,37.97
2018-11-05T01:20:17.738Z,44.23
2018-11-05T01:22:46.457Z,38.37
2018-11-05T01:25:15.117Z,41.60
2018-11-05T01:27:46.702Z,38.57
2018-11-05T01:30:15.370Z,40.30
2018-11-05T01:32:44.074Z,43.33
2018-11-05T01:35:28.792Z,42.33
2018-11-05T01:37:58.243Z,39.03
2018-11-05T01:40:34.075Z,43.30
2018-11-05T01:43:02.572Z,37.57
2018-11-05T01:45:32.089Z,42.50
2018-11-05T01:48:06.300Z,38.80
2018-11-05T01:50:34.791Z,34.50
2018-11-05T01:53:04.314Z,36.47
2018-11-05T01:55:35.818Z,37.40
2018-11-05T01:58:09.462Z,32.70
2018-11-05T02:00:38.113Z,40.80
2018-11-05T02:03:06.791Z,37.53
2018-11-05T02:05:37.146Z,36.87
2018-11-05T02:08:08.722Z,38.70
2018-11-05T02:10:37.382Z,42.43
2018-11-05T02:13:11.609Z,33.90
2018-11-05T02:15:44.146Z,35.20
2018-11-05T02:18:15.757Z,37.20
2018-11-05T02:20:47.662Z,35.13
2018-11-05T02:23:21.940Z,37.70
2018-11-05T02:25:57.578Z,38.17
2018-11-05T02:28:26.070Z,38.40
2018-11-05T02:31:01.082Z,33.80
2018-11-05T02:33:29.538Z,33.43
2018-11-05T02:35:58.210Z,35.07
2018-11-05T02:38:28.617Z,33.07
2018-11-05T02:40:59.291Z,35.83
2018-11-05T02:43:29.687Z,35.80
2018-11-05T02:46:05.484Z,36.17
2018-11-05T02:48:33.981Z,44.13
2018-11-05T02:51:06.802Z,36.03
2018-11-05T02:53:35.449Z,35.83
2018-11-05T02:56:07.680Z,36.03
2018-11-05T02:58:37.318Z,32.77
2018-11-05T03:01:06.978Z,36.80
2018-11-05T03:03:41.050Z,37.00
2018-11-05T03:06:09.504Z,33.90
2018-11-05T03:08:39.063Z,29.80
2018-11-05T03:11:14.061Z,30.97
2018-11-05T03:13:42.557Z,38.83
2018-11-05T03:16:12.019Z,34.33
2018-11-05T03:18:41.246Z,31.33
2018-11-05T03:21:09.822Z,32.77
2018-11-05T03:23:42.231Z,32.80
2018-11-05T03:26:14.194Z,33.40
2018-11-05T03:28:46.165Z,36.37
2018-11-05T03:31:14.811Z,32.60
2018-11-05T03:33:43.484Z,38.43
2018-11-05T03:36:17.108Z,35.50
2018-11-05T03:38:45.774Z,36.00
2018-11-05T03:41:14.559Z,34.77
2018-11-05T03:43:45.246Z,31.27
2018-11-05T03:46:14.714Z,31.97
2018-11-05T03:48:43.404Z,35.20
2018-11-05T03:51:12.925Z,33.83
2018-11-05T03:53:48.376Z,31.40
2018-11-05T03:56:22.927Z,33.33
2018-11-05T03:58:51.233Z,40.53
2018-11-05T04:01:31.249Z,35.30
2018-11-05T04:04:01.757Z,34.97
2018-11-05T04:06:34.536Z,37.60
2018-11-05T04:09:04.941Z,30.87
2018-11-05T04:11:37.252Z,32.60
2018-11-05T04:14:06.877Z,34.93
2018-11-05T04:16:35.412Z,37.03
2018-11-05T04:19:05.253Z,34.53
2018-11-05T04:21:42.190Z,38.03
2018-11-05T04:24:13.357Z,35.87
2018-11-05T04:26:47.379Z,37.50
2018-11-05T04:29:23.681Z,32.60
2018-11-05T04:31:57.024Z,34.43
2018-11-05T04:34:29.027Z,32.57
2018-11-05T04:37:00.959Z,30.40
2018-11-05T04:39:29.667Z,32.17
2018-11-05T04:41:58.623Z,36.97
2018-11-05T04:44:29.100Z,32.63
2018-11-05T04:47:03.587Z,31.77
2018-11-05T04:49:33.039Z,32.43
2018-11-05T04:52:07.181Z,38.23
2018-11-05T04:54:35.747Z,30.80
2018-11-05T04:57:08.103Z,30.80
2018-11-05T04:59:37.555Z,35.90
2018-11-05T05:02:15.082Z,39.10
2018-11-05T05:04:49.910Z,31.23
2018-11-05T05:07:18.397Z,37.37
2018-11-05T05:09:47.083Z,31.83
2018-11-05T05:12:25.408Z,28.63
2018-11-05T05:14:55.915Z,31.40
2018-11-05T05:17:30.133Z,35.63
2018-11-05T05:19:58.664Z,32.17
2018-11-05T05:22:27.479Z,36.53
2018-11-05T05:24:57.006Z,37.00
2018-11-05T05:27:25.596Z,34.13
2018-11-05T05:30:01.930Z,33.50
2018-11-05T05:32:31.446Z,34.63
2018-11-05T05:35:00.993Z,32.27
2018-11-05T05:37:29.675Z,34.30
2018-11-05T05:40:01.772Z,36.57
2018-11-05T05:42:30.553Z,32.83
2018-11-05T05:44:59.009Z,31.87
2018-11-05T05:47:28.619Z,34.53
2018-11-05T05:49:57.183Z,31.43
2018-11-05T05:52:26.789Z,32.77
2018-11-05T05:54:55.407Z,34.13
2018-11-05T05:57:31.629Z,35.17
2018-11-05T06:00:00.223Z,35.50
2018-11-05T06:02:40.606Z,36.67
2018-11-05T06:05:10.652Z,36.50
2018-11-05T06:07:39.801Z,33.57
2018-11-05T06:10:10.085Z,33.27
2018-11-05T06:12:39.763Z,39.27
2018-11-05T06:15:15.687Z,32.50
2018-11-05T06:17:47.997Z,34.23
2018-11-05T06:20:24.326Z,32.53
2018-11-05T06:22:59.111Z,37.27
2018-11-05T06:25:41.045Z,35.03
2018-11-05T06:28:24.623Z,33.60
2018-11-05T06:30:53.411Z,34.83
2018-11-05T06:33:24.453Z,31.00
2018-11-05T06:35:53.120Z,31.47
2018-11-05T06:38:25.041Z,30.60
2018-11-05T06:40:55.743Z,33.57
2018-11-05T06:43:24.425Z,39.33
2018-11-05T06:46:01.134Z,34.13
2018-11-05T06:48:30.776Z,37.40
2018-11-05T06:51:05.865Z,33.07
2018-11-05T06:53:35.641Z,35.20
2018-11-05T06:56:05.041Z,34.80
2018-11-05T06:58:33.706Z,36.23
2018-11-05T07:01:02.457Z,48.20
2018-11-05T07:03:31.130Z,43.50
2018-11-05T07:06:00.052Z,36.87
2018-11-05T07:08:32.362Z,36.97
2018-11-05T07:11:01.102Z,38.27
2018-11-05T07:13:29.683Z,36.73
2018-11-05T07:15:58.323Z,35.40
2018-11-05T07:18:30.488Z,35.33
2018-11-05T07:20:58.859Z,33.33
2018-11-05T07:23:30.847Z,34.93
2018-11-05T07:25:59.634Z,34.87
2018-11-05T07:28:33.762Z,33.40
2018-11-05T07:31:02.247Z,30.13
2018-11-05T07:33:31.870Z,30.93
2018-11-05T07:36:02.468Z,33.73
2018-11-05T07:38:36.692Z,31.23
2018-11-05T07:41:13.350Z,31.00
2018-11-05T07:43:47.994Z,32.23
2018-11-05T07:46:16.518Z,34.67
2018-11-05T07:48:45.983Z,30.93
2018-11-05T07:51:18.858Z,34.53
2018-11-05T07:53:55.086Z,33.27
2018-11-05T07:56:29.292Z,30.73
2018-11-05T07:59:01.289Z,32.00
2018-11-05T08:01:35.400Z,33.77
2018-11-05T08:04:07.684Z,31.77
2018-11-05T08:06:38.389Z,33.93
2018-11-05T08:09:10.254Z,32.30
2018-11-05T08:11:41.157Z,31.17
2018-11-05T08:14:09.875Z,38.17
2018-11-05T08:16:43.967Z,33.93
2018-11-05T08:19:24.490Z,37.43
2018-11-05T08:21:55.897Z,32.40
2018-11-05T08:24:27.907Z,32.73
2018-11-05T08:26:56.565Z,35.07
2018-11-05T08:29:27.295Z,34.07
2018-11-05T08:32:03.557Z,34.50
2018-11-05T08:34:36.955Z,31.70
2018-11-05T08:37:06.825Z,31.17
2018-11-05T08:39:36.360Z,37.67
2018-11-05T08:42:07.895Z,33.13
2018-11-05T08:44:39.839Z,32.07
2018-11-05T08:47:09.387Z,32.93
2018-11-05T08:49:38.847Z,33.83
2018-11-05T08:52:09.480Z,30.40
2018-11-05T08:54:39.264Z,33.17
2018-11-05T08:57:09.024Z,30.67
2018-11-05T08:59:39.763Z,30.70
2018-11-05T09:02:09.279Z,30.83
2018-11-05T09:04:40.048Z,29.77
2018-11-05T09:07:09.538Z,31.67
2018-11-05T09:09:39.016Z,31.33
2018-11-05T09:12:09.891Z,32.70
2018-11-05T09:14:39.220Z,31.70
2018-11-05T09:17:14.733Z,31.33
2018-11-05T09:19:45.203Z,31.10
2018-11-05T09:22:16.003Z,32.43
2018-11-05T09:24:52.214Z,33.53
2018-11-05T09:27:22.765Z,32.80
2018-11-05T09:29:52.553Z,29.83
2018-11-05T09:32:22.182Z,34.70
2018-11-05T09:34:58.099Z,32.33
2018-11-05T09:37:27.736Z,33.87
2018-11-05T09:40:01.979Z,36.60
2018-11-05T09:42:30.452Z,32.03
2018-11-05T09:45:02.419Z,31.37
2018-11-05T09:47:31.904Z,31.53
2018-11-05T09:50:06.796Z,32.00
2018-11-05T09:52:35.479Z,31.40
2018-11-05T09:55:05.160Z,31.17
2018-11-05T09:57:45.886Z,30.37
2018-11-05T10:00:20.256Z,37.60
2018-11-05T10:03:27.543Z,31.90
2018-11-05T10:05:55.890Z,31.77
2018-11-05T10:08:24.562Z,34.17
2018-11-05T10:10:53.306Z,32.13
2018-11-05T10:13:21.842Z,33.00
2018-11-05T10:15:50.593Z,33.03
2018-11-05T10:18:25.125Z,33.90
2018-11-05T10:20:53.626Z,34.50
2018-11-05T10:23:34.642Z,31.57
2018-11-05T10:26:05.667Z,28.90
2018-11-05T10:28:35.365Z,31.43
2018-11-05T10:31:03.990Z,29.90
2018-11-05T10:33:50.870Z,30.87
2018-11-05T10:36:19.617Z,32.47
2018-11-05T10:38:48.246Z,29.57
2018-11-05T10:41:24.847Z,29.50
2018-11-05T10:44:01.816Z,32.73
2018-11-05T10:46:31.295Z,30.67
2018-11-05T10:49:02.123Z,32.47
2018-11-05T10:51:36.505Z,28.73
2018-11-05T10:54:05.294Z,28.53
2018-11-05T10:56:35.741Z,30.07
2018-11-05T10:59:06.228Z,28.30
2018-11-05T11:01:47.535Z,31.37
2018-11-05T11:04:22.530Z,31.57
2018-11-05T11:07:04.115Z,31.50
2018-11-05T11:09:34.668Z,33.50
2018-11-05T11:12:08.195Z,27.47
2018-11-05T11:14:43.993Z,32.30
2018-11-05T11:17:12.491Z,31.60
2018-11-05T11:19:41.170Z,29.77
2018-11-05T11:22:15.612Z,34.37
2018-11-05T11:24:56.566Z,31.63
2018-11-05T11:27:25.292Z,31.40
2018-11-05T11:29:57.217Z,33.10
2018-11-05T11:32:25.979Z,34.97
2018-11-05T11:35:01.143Z,33.13
2018-11-05T11:37:31.436Z,30.43
2018-11-05T11:40:00.991Z,28.57
2018-11-05T11:42:36.510Z,28.30
2018-11-05T11:45:11.583Z,30.37
2018-11-05T11:47:46.080Z,28.47
2018-11-05T11:50:16.606Z,29.83
2018-11-05T11:52:45.348Z,29.03
2018-11-05T11:55:15.594Z,32.17
2018-11-05T11:57:50.308Z,29.53
2018-11-05T12:00:24.128Z,30.63
2018-11-05T12:02:53.263Z,29.93
2018-11-05T12:05:22.884Z,28.60
2018-11-05T12:07:55.050Z,28.93
2018-11-05T12:10:25.012Z,33.30
2018-11-05T12:12:53.681Z,29.43
2018-11-05T12:15:29.921Z,34.13
2018-11-05T12:17:58.557Z,33.33
2018-11-05T12:20:27.188Z,26.80
2018-11-05T12:22:55.803Z,29.53
2018-11-05T12:25:28.593Z,28.43
2018-11-05T12:27:57.280Z,27.63
2018-11-05T12:30:31.457Z,29.77
2018-11-05T12:32:59.962Z,26.67
2018-11-05T12:38:23.958Z,28.83
2018-11-05T12:41:03.056Z,28.30
2018-11-05T12:43:49.164Z,30.20
2018-11-05T12:46:17.821Z,27.37
2018-11-05T12:48:46.538Z,28.13
2018-11-05T12:51:15.239Z,29.33
2018-11-05T12:53:43.926Z,30.20
2018-11-05T12:56:21.024Z,29.90
2018-11-05T12:58:49.491Z,34.30
2018-11-05T13:01:18.247Z,32.13
2018-11-05T13:03:46.867Z,29.87
2018-11-05T13:06:21.886Z,30.13
2018-11-05T13:08:50.955Z,36.17
2018-11-05T13:11:19.470Z,30.87
2018-11-05T13:13:48.973Z,33.97
2018-11-05T13:16:18.482Z,32.50
2018-11-05T13:18:50.596Z,33.77
2018-11-05T13:21:19.216Z,33.60
2018-11-05T13:23:48.651Z,29.70
2018-11-05T13:26:24.502Z,34.10
2018-11-05T13:28:53.075Z,31.87
2018-11-05T13:31:25.404Z,31.00
2018-11-05T13:33:54.899Z,31.00
2018-11-05T13:36:23.626Z,32.37
2018-11-05T13:38:52.223Z,37.23
2018-11-05T13:41:26.448Z,32.43
2018-11-05T13:43:54.920Z,34.47
2018-11-05T13:46:29.506Z,32.43
2018-11-05T13:48:58.099Z,32.60
2018-11-05T13:51:26.393Z,31.97
2018-11-05T13:53:55.268Z,31.70
2018-11-05T13:56:24.974Z,33.13
2018-11-05T13:59:00.791Z,32.13
2018-11-05T14:01:29.277Z,30.43
2018-11-05T14:03:57.942Z,34.00
2018-11-05T14:06:29.946Z,32.90
2018-11-05T14:08:58.594Z,37.47
2018-11-05T14:11:27.582Z,34.87
2018-11-05T14:13:58.114Z,34.47
2018-11-05T14:16:27.607Z,37.83
2018-11-05T14:18:57.390Z,39.70
2018-11-05T14:21:26.213Z,37.03
2018-11-05T14:23:54.872Z,40.13
2018-11-05T14:26:23.507Z,38.67
2018-11-05T14:28:54.603Z,40.20
2018-11-05T14:31:23.806Z,37.73
2018-11-05T14:33:52.505Z,40.60
2018-11-05T14:36:26.494Z,40.10
2018-11-05T14:39:07.176Z,43.60
2018-11-05T14:41:35.727Z,43.23
2018-11-05T14:44:08.946Z,44.50
2018-11-05T14:46:42.192Z,41.10
2018-11-05T14:49:13.215Z,41.37
2018-11-05T14:51:47.461Z,42.13
2018-11-05T14:54:15.952Z,41.53
2018-11-05T14:56:47.469Z,44.37
2018-11-05T14:59:16.201Z,43.33
2018-11-05T15:01:53.166Z,40.27
2018-11-05T15:04:21.790Z,47.60
2018-11-05T15:06:51.218Z,41.73
2018-11-05T15:09:26.341Z,44.00
2018-11-05T15:12:01.936Z,41.67
2018-11-05T15:14:31.701Z,44.53
2018-11-05T15:17:00.328Z,42.13
2018-11-05T15:19:32.651Z,41.43
2018-11-05T15:22:00.970Z,41.20
2018-11-05T15:24:32.980Z,50.43
2018-11-05T15:27:07.246Z,44.00
2018-11-05T15:29:42.948Z,41.20
2018-11-05T15:32:18.532Z,45.93
2018-11-05T15:34:49.123Z,46.63
2018-11-05T15:37:17.810Z,42.73
2018-11-05T15:39:46.414Z,43.20
2018-11-05T15:42:20.237Z,43.63
2018-11-05T15:45:03.379Z,47.73
2018-11-05T15:47:44.097Z,47.47
2018-11-05T15:50:20.083Z,42.30
2018-11-05T15:53:05.389Z,48.93
2018-11-05T15:55:33.792Z,41.87
2018-11-05T15:58:03.350Z,44.20
2018-11-05T16:00:35.229Z,38.30
2018-11-05T16:03:08.070Z,42.60
2018-11-05T16:05:40.067Z,41.23
2018-11-05T16:08:22.642Z,40.43
2018-11-05T16:10:52.095Z,43.47
2018-11-05T16:13:24.503Z,48.30
2018-11-05T16:15:58.078Z,41.10
2018-11-05T16:18:31.264Z,41.57
2018-11-05T16:21:04.125Z,43.37
2018-11-05T16:23:35.720Z,41.03
2018-11-05T16:26:09.839Z,39.33
2018-11-05T16:28:44.686Z,38.83
2018-11-05T16:31:13.115Z,40.47
2018-11-05T16:33:42.148Z,46.57
2018-11-05T16:36:11.727Z,40.93
2018-11-05T16:38:43.715Z,41.73
2018-11-05T16:41:30.803Z,41.03
2018-11-05T16:44:00.382Z,35.73
2018-11-05T16:46:41.260Z,39.57
2018-11-05T16:49:10.866Z,46.27
2018-11-05T16:51:40.618Z,43.13
2018-11-05T16:54:15.376Z,45.70
2018-11-05T16:56:43.873Z,45.70
2018-11-05T16:59:13.340Z,47.10
2018-11-05T17:01:42.460Z,43.07
2018-11-05T17:04:16.648Z,41.47
2018-11-05T17:06:51.549Z,48.73
2018-11-05T17:09:24.079Z,46.50
2018-11-05T17:11:56.041Z,46.37
2018-11-05T17:14:30.219Z,49.83
2018-11-05T17:16:58.845Z,46.50
2018-11-05T17:19:27.468Z,49.23
2018-11-05T17:21:56.101Z,44.40
2018-11-05T17:24:24.843Z,56.00
2018-11-05T17:26:53.481Z,52.77
2018-11-05T17:29:27.379Z,51.67
2018-11-05T17:31:57.055Z,52.30
2018-11-05T17:34:28.967Z,51.87
2018-11-05T17:37:00.557Z,53.47
2018-11-05T17:39:38.833Z,52.40
2018-11-05T17:42:19.450Z,52.07
2018-11-05T17:44:49.992Z,57.37
2018-11-05T17:47:19.483Z,54.27
2018-11-05T17:49:53.638Z,51.53
2018-11-05T17:52:22.253Z,61.43
2018-11-05T17:54:50.875Z,56.73
2018-11-05T17:57:19.559Z,50.70
2018-11-05T17:59:53.559Z,47.47
2018-11-05T18:02:26.129Z,45.90
2018-11-05T18:04:56.254Z,50.60
2018-11-05T18:07:25.838Z,50.20
2018-11-05T18:09:56.487Z,48.83
2018-11-05T18:12:28.097Z,47.57
2018-11-05T18:15:02.407Z,50.80
2018-11-05T18:17:51.161Z,53.67
2018-11-05T18:20:19.913Z,50.37
2018-11-05T18:23:07.353Z,48.03
2018-11-05T18:25:36.105Z,49.47
2018-11-05T18:28:04.867Z,52.23
2018-11-05T18:30:33.493Z,49.73
2018-11-05T18:33:02.151Z,42.67
2018-11-05T18:35:34.939Z,46.90
2018-11-05T18:38:05.795Z,45.27
2018-11-05T18:40:35.206Z,42.37
2018-11-05T18:43:13.810Z,63.70
2018-11-05T18:45:43.174Z,63.67
2018-11-05T18:48:14.014Z,68.37
2018-11-05T18:50:52.695Z,64.33
2018-11-05T18:53:24.941Z,57.37
2018-11-05T18:55:53.570Z,58.97
2018-11-05T18:58:30.188Z,55.80
2018-11-05T19:00:58.711Z,55.97
2018-11-05T19:03:33.113Z,50.93
2018-11-05T19:06:07.718Z,52.90
2018-11-05T19:08:36.291Z,49.30
2018-11-05T19:11:05.635Z,46.77
2018-11-05T19:13:38.190Z,57.57
2018-11-05T19:16:11.173Z,45.70
2018-11-05T19:18:41.133Z,56.50
2018-11-05T19:21:10.063Z,49.73
2018-11-05T19:23:38.655Z,47.47
2018-11-05T19:26:10.559Z,45.30
2018-11-05T19:28:42.577Z,45.07
2018-11-05T19:31:22.725Z,43.87
2018-11-05T19:33:53.513Z,43.83
2018-11-05T19:36:22.118Z,43.00
2018-11-05T19:38:52.827Z,43.90
2018-11-05T19:41:22.353Z,47.53
2018-11-05T19:43:51.862Z,40.30
2018-11-05T19:46:22.576Z,45.57
2018-11-05T19:48:59.245Z,40.80
2018-11-05T19:51:29.900Z,39.33
2018-11-05T19:53:58.456Z,37.97
2018-11-05T19:56:37.295Z,40.20
2018-11-05T19:59:07.805Z,38.13
2018-11-05T20:01:48.376Z,39.37
2018-11-05T20:04:17.020Z,39.73
2018-11-05T20:06:49.209Z,44.20
2018-11-05T20:09:21.711Z,42.53
2018-11-05T20:11:52.509Z,36.70
2018-11-05T20:14:22.044Z,39.17
2018-11-05T20:16:50.792Z,33.23
2018-11-05T20:19:20.273Z,38.33
2018-11-05T20:21:52.518Z,33.67
2018-11-05T20:24:28.020Z,39.37
2018-11-05T20:27:02.617Z,37.77
2018-11-05T20:29:32.113Z,35.97
2018-11-05T20:32:05.457Z,39.20
2018-11-05T20:34:34.965Z,36.90
2018-11-05T20:37:04.340Z,39.93
2018-11-05T20:39:39.040Z,41.30
2018-11-05T20:42:14.563Z,32.97
2018-11-05T20:44:43.123Z,36.60
2018-11-05T20:47:18.928Z,41.87
2018-11-05T20:49:47.415Z,41.23
2018-11-05T20:52:16.108Z,41.17
2018-11-05T20:54:50.351Z,40.67
2018-11-05T20:57:25.162Z,45.03
2018-11-05T20:59:58.552Z,42.83
2018-11-05T21:02:27.313Z,35.63
2018-11-05T21:04:55.900Z,40.10
2018-11-05T21:07:30.997Z,42.23
2018-11-05T21:09:59.408Z,40.37
2018-11-05T21:12:28.204Z,40.10
2018-11-05T21:15:01.080Z,41.80
2018-11-05T21:17:29.570Z,39.53
2018-11-05T21:20:02.928Z,38.87
2018-11-05T21:22:35.616Z,40.37
2018-11-05T21:25:08.768Z,40.30
2018-11-05T21:27:38.342Z,38.00
2018-11-05T21:30:15.066Z,37.77
2018-11-05T21:32:48.484Z,34.33
2018-11-05T21:35:28.902Z,37.73
2018-11-05T21:38:00.868Z,37.13
2018-11-05T21:40:37.215Z,40.73
2018-11-05T21:43:06.111Z,35.60
2018-11-05T21:45:40.267Z,36.17
2018-11-05T21:48:14.510Z,37.87
2018-11-05T21:50:43.090Z,38.23
2018-11-05T21:53:12.617Z,35.53
2018-11-05T21:55:43.515Z,34.13
2018-11-05T21:58:12.048Z,38.87
2018-11-05T22:00:40.761Z,35.30
2018-11-05T22:03:15.949Z,37.23
2018-11-05T22:05:47.539Z,37.67
2018-11-05T22:08:21.793Z,44.73
2018-11-05T22:10:57.441Z,41.93
2018-11-05T22:13:26.053Z,37.00
2018-11-05T22:15:54.555Z,36.03
2018-11-05T22:18:40.091Z,37.30
2018-11-05T22:21:08.778Z,34.97
2018-11-05T22:23:40.749Z,33.07
2018-11-05T22:26:12.755Z,34.20
2018-11-05T22:28:41.383Z,33.47
2018-11-05T22:31:10.873Z,32.83
2018-11-05T22:33:41.619Z,33.80
2018-11-05T22:36:11.122Z,31.50
2018-11-05T22:38:39.785Z,35.63
2018-11-05T22:41:16.111Z,36.10
2018-11-05T22:43:51.564Z,30.10
2018-11-05T22:46:21.044Z,35.20
2018-11-05T22:48:49.713Z,31.93
2018-11-05T22:51:18.385Z,35.40
2018-11-05T22:53:55.075Z,41.17
2018-11-05T22:56:23.527Z,35.33
2018-11-05T22:58:55.950Z,35.13
2018-11-05T23:01:34.170Z,34.30
2018-11-05T23:04:03.324Z,39.43
2018-11-05T23:06:32.498Z,39.83
2018-11-05T23:09:07.621Z,36.07
2018-11-05T23:11:36.126Z,34.43
2018-11-05T23:14:08.198Z,36.50
2018-11-05T23:16:38.889Z,38.90
2018-11-05T23:19:10.802Z,35.13
2018-11-05T23:21:39.490Z,37.83
2018-11-05T23:24:09.023Z,35.30
2018-11-05T23:26:40.991Z,37.60
2018-11-05T23:29:13.755Z,34.43
2018-11-05T23:31:45.327Z,35.90
2018-11-05T23:34:13.966Z,35.60
2018-11-05T23:36:52.489Z,34.73
2018-11-05T23:39:28.741Z,31.20
2018-11-05T23:41:59.575Z,38.53
2018-11-05T23:44:41.896Z,36.63
2018-11-05T23:47:26.738Z,34.20
2018-11-05T23:50:06.605Z,37.43
2018-11-05T23:55:29.109Z,34.83
2018-11-05T23:57:57.734Z,36.43
